• Join FlightAware (Why Join?)
  • Login
  • US Flag GB Flag 
20:28 EST


 

Airport Tracker/Info


-or-


 

Live Flight TrackerFlight Track Log ✈ UAL395 ✈ 08-May-2013 ✈ KORD - KEWR

Flight Track Log - Related Links

Times and Time Zones

All times are in EDT time to prevent confusion due to time zone crossing. See the UAL395 flight status page for this flight to view local times or setup timezone preferences in your user account.

Time Position Orientation Groundspeed Altitude Reporting Facility
EDT Latitude Longitude Course Direction KTS MPH feet Rate Location/Type
08:12 41.9833 -87.8500 77° East 159 183 2,100  Level Chicago TRACON
08:14 42.0356 -87.5257 83° East  Level FlightAware Approximate
08:14 41.9911 -87.6986 86° East 242 278 6,500  Level Chicago Center
08:15 42.0481 -87.3879 83° East  Level FlightAware Approximate
08:15 41.9936 -87.5711 88° East 275 316 10,400  Level Chicago Center
08:16 42.0677 -87.2517 78° East  Level FlightAware Approximate
08:16 42.0200 -87.4644 72° East 297 342 13,000  Level Chicago Center
08:17 42.0890 -87.1159 77° East  Level FlightAware Approximate
08:17 42.0492 -87.3389 73° East 339 390 14,100  Level Chicago Center
08:18 42.0811 -87.1989 73° East 380 437 16,500 2,160 Climbing Chicago Center
08:19 42.1122 -87.0544 74° East 398 458 18,600 2,100 Climbing Chicago Center
08:20 42.1197 -86.8667 87° East 416 479 20,900 1,980 Climbing Chicago Center
08:21 42.1242 -86.7069 88° East 424 488 22,700 1,560 Climbing Chicago Center
08:22 42.1308 -86.5344 87° East 441 507 24,200 1,440 Climbing Chicago Center
08:23 42.1375 -86.3647 87° East 451 519 25,700 1,380 Climbing Chicago Center
08:24 42.1422 -86.1928 88° East 457 526 27,100 1,200 Climbing Chicago Center
08:25 42.1436 -86.0164 89° East 469 540 28,200 1,380 Climbing Chicago Center
08:26 42.1417 -85.8189 91° East 472 543 30,000 1,500 Climbing Chicago Center
08:27 42.1403 -85.6456 91° East 470 541 31,300 1,320 Climbing Chicago Center
08:28 42.1392 -85.4733 90° East 464 534 32,800 1,560 Climbing Chicago Center
08:29 42.1397 -85.3136 90° East 465 535 34,300 1,500 Climbing Cleveland Center
08:30 42.1381 -85.1508 91° East 449 517 35,700 1,200 Climbing Cleveland Center
08:31 42.1339 -84.9881 92° East 438 504 36,700 600 Climbing Cleveland Center
08:32 42.1314 -84.8311 91° East 438 504 37,000 120 Climbing Cleveland Center
08:33 42.1289 -84.6711 91° East 427 491 37,000  Level Cleveland Center
08:34 42.1261 -84.5114 91° East 419 482 37,000 -60 Level Cleveland Center
08:35 42.1347 -84.3858 85° East 419 482 36,900 -60 Descending Cleveland Center
08:36 42.1483 -84.2214 84° East 419 482 36,900  Level Cleveland Center
08:37 42.1678 -84.0656 80° East 419 482 37,000  Climbing Cleveland Center
08:38 42.1828 -83.9094 83° East 419 482 37,000  Level Cleveland Center
08:39 42.1997 -83.7561 81° East 424 488 37,000  Level Cleveland Center
08:40 42.2161 -83.6028 82° East 424 488 37,000  Level Cleveland Center
08:41 42.2142 -83.4344 91° East 411 473 37,000  Level Cleveland Center
08:42 42.1908 -83.2792 101° East 411 473 37,000  Level Cleveland Center
08:43 42.1647 -83.1436 105° East 411 473 37,000  Level Cleveland Center
08:44 42.1369 -82.9914 104° East 417 480 37,000  Level Cleveland Center
08:45 42.1067 -82.8361 105° East 417 480 37,000  Level Cleveland Center
08:46 42.0783 -82.6842 104° East 417 480 37,000  Level Cleveland Center
08:47 42.0475 -82.5319 105° East 427 491 37,000  Level Cleveland Center
08:48 42.0189 -82.3803 104° East 422 486 37,000  Level Cleveland Center
08:49 41.9922 -82.2064 102° East 422 486 37,000  Level Cleveland Center
08:50 41.9631 -82.0575 105° East 415 478 37,000  Level Cleveland Center
08:51 41.9314 -81.9089 106° East 415 478 37,000  Level Cleveland Center
08:52 41.9103 -81.7578 101° East 415 478 37,000  Level Cleveland Center
08:53 41.8969 -81.6042 97° East 415 478 37,000  Level Cleveland Center
08:54 41.8817 -81.4506 98° East 415 478 37,000  Level Cleveland Center
08:55 41.8700 -81.3108 96° East 410 472 37,000  Level Cleveland Center
08:56 41.8564 -81.1603 97° East 410 472 37,000  Level Cleveland Center
08:57 41.8425 -81.0097 97° East 404 465 37,000  Level Cleveland Center
08:58 41.8283 -80.8589 97° East 404 465 37,000  Level Cleveland Center
08:59 41.8139 -80.7086 97° East 409 471 37,000  Level Cleveland Center
09:00 41.7975 -80.5442 98° East 409 471 37,000 240 Level Cleveland Center
09:01 41.7806 -80.3883 98° East 415 478 37,500 540 Climbing Cleveland Center
09:02 41.7656 -80.2353 97° East 420 483 38,100 600 Climbing Cleveland Center
09:03 41.7506 -80.0794 97° East 420 483 38,800 420 Climbing Cleveland Center
09:04 41.7331 -79.9236 99° East 420 483 39,000 60 Climbing Cleveland Center
09:05 41.7153 -79.7681 99° East 420 483 39,000  Level Cleveland Center
09:06 41.7017 -79.6292 97° East 427 491 39,000  Level Cleveland Center
09:07 41.6858 -79.4739 98° East 427 491 39,000  Level Cleveland Center
09:08 41.6694 -79.3156 98° East 427 491 39,000  Level Cleveland Center
09:09 41.6511 -79.1575 99° East 433 498 39,000  Level Cleveland Center
09:10 41.6344 -78.9994 98° East 428 493 39,000  Level Cleveland Center
09:11 41.6153 -78.8361 99° East 428 493 39,000 -300 Level Cleveland Center
09:12 41.5981 -78.6756 98° East 428 493 38,500 -960 Descending Cleveland Center
09:13 41.5789 -78.5233 100° East 423 487 37,100 -2,040 Descending Cleveland Center
09:15 41.5517 -78.2947 99° East 400 460 33,300 -2,400 Descending New York Center
09:16 41.5353 -78.1597 99° East 385 443 31,000 -1,200 Descending New York Center
09:17 41.5206 -78.0278 98° East 364 419 31,000  Level New York Center
09:18 41.5033 -77.8958 100° East 359 413 31,000  Level New York Center
09:19 41.4844 -77.7608 101° East 359 413 31,000  Level New York Center
09:20 41.4650 -77.6286 101° East 359 413 31,000  Level New York Center
09:21 41.4475 -77.4967 100° East 359 413 31,000  Level New York Center
09:22 41.4239 -77.3614 103° East 359 413 31,000  Level New York Center
09:23 41.4064 -77.2269 100° East 359 413 31,000  Level New York Center
09:24 41.3844 -77.0919 102° East 359 413 31,000 -300 Level New York Center
09:25 41.3644 -76.9547 101° East 359 413 30,500 -1,320 Descending New York Center
09:26 41.3461 -76.8258 101° East 364 419 28,500 -2,040 Descending New York Center
09:27 41.3169 -76.7017 107° East 359 413 26,500 -1,920 Descending New York Center
09:28 41.2853 -76.5831 110° East 348 400 24,600 -1,920 Descending New York Center
09:29 41.2536 -76.4672 110° East 342 394 22,700 -1,860 Descending New York Center
09:30 41.2217 -76.3511 110° East 337 388 20,900 -1,620 Descending New York Center
09:31 41.1894 -76.2328 110° East 337 388 19,500 -1,320 Descending New York Center
09:32 41.1631 -76.1286 109° East 337 388 18,300 -1,200 Descending New York Center
09:33 41.1328 -76.0161 110° East 337 388 17,200 -1,260 Descending New York Center
09:34 41.1008 -75.8897 109° East 337 388 15,900 -1,200 Descending New York Center
09:35 41.0681 -75.7772 111° Southeast 332 382 14,800 -1,140 Descending New York Center
09:36 41.0372 -75.6675 110° East 332 382 13,700 -960 Descending New York Center
09:37 41.0100 -75.5694 110° East 326 375 13,000 -660 Descending New York Center
09:38 40.9772 -75.4489 110° East 316 364 12,400 -960 Descending New York Center
09:39 40.9517 -75.3619 111° Southeast 301 346 11,100 -1,380 Descending New York Center
09:40 40.9242 -75.2639 110° East 287 330 9,700 -1,560 Descending New York Center
09:41 40.8944 -75.1631 111° Southeast 273 314 8,100 -1,380 Descending New York Center
09:42 40.8708 -75.0711 109° East 261 300 7,000 -600 Descending New York Center
09:43 40.8447 -74.9844 112° Southeast 255 293 7,000  Level New York Center
09:44 40.8289 -74.9011 104° East 260 299 7,000  Level New York Center
09:45 40.8492 -74.8008 75° East 271 312 7,000  Level New York Center
09:46 40.8714 -74.6925 75° East 271 312 7,000  Level New York Center
09:47 40.8953 -74.6033 70° East 271 312 7,000 -540 Level New York Center
09:48 40.8500 -74.5500 138° Southeast 251 289 6,000 -540 Descending New York TRACON
09:49 40.7833 -74.5500 180° South 252 290 6,000 -180 Level New York TRACON
09:50 40.7167 -74.5500 180° South 247 284 5,700 -540 Descending New York TRACON
09:51 40.6500 -74.5333 169° South 245 282 5,000 -360 Descending New York TRACON
09:52 40.5833 -74.5000 159° South 238 274 5,000 -240 Level New York TRACON
09:53 40.5333 -74.4500 143° Southeast 232 267 4,600 -900 Descending New York TRACON
09:54 40.4833 -74.4167 153° Southeast 237 273 3,200 -900 Descending New York TRACON
09:55 40.5000 -74.3333 75° East 237 273 3,000 -240 Descending New York TRACON